Latest Weather Observations for Trepell

IDQ60801

Issued at 10:42 am EST Thursday 21 November 2019 (issued every 10 minutes, with the page automatically refreshed every 10 minutes)

About weather observations | Map of weather stations | Latest weather observations for QLD | Other Formats
Station Details ID: 037036 Name: TREPELL AIRPORT Lat: -21.84 Lon: 140.89 Height: 266.2 m
Data from the previous 72 hours. | See also: Recent months at Trepell
Date/Time
EST
Temp
°C
App
Temp
°C
Dew
Point
°C
Rel
Hum
%
Delta-T
°C
Wind Press
QNH
hPa
Press
MSL
hPa
Rain since
9am
mm
Dir  Spd
km/h
Gust
km/h
Spd
kts
Gust
kts
21/10:30am 36.4 31.7 13.2 25 14.3 N 30 43 16 23 1010.8 1008.9 0.0
21/10:00am 35.9 29.7 12.8 25 14.1 NNE 37 50 20 27 1010.7 1008.8 0.0
21/09:30am 34.9 29.2 13.1 27 13.3 N 35 46 19 25 1011.0 1009.1 0.0
21/09:00am 34.3 30.2 13.7 29 12.7 N 28 37 15 20 1011.2 1009.3 0.0
21/08:30am 32.6 27.9 13.3 31 11.7 NNE 30 43 16 23 1011.3 1009.4 0.0
21/08:00am 31.5 26.3 12.8 32 11.3 NNE 32 39 17 21 1011.3 1009.4 0.0
21/07:30am 30.2 25.2 12.1 32 10.7 NNE 30 39 16 21 1011.0 1009.1 0.0
21/07:00am 29.6 25.5 13.8 38 9.6 NNE 28 37 15 20 1010.7 1008.8 0.0
21/06:30am 28.7 26.7 13.8 40 9.0 NNE 17 20 9 11 1010.1 1008.2 0.0
21/06:00am 27.7 25.6 13.6 42 8.5 NNE 17 22 9 12 1009.7 1007.8 0.0
21/05:30am 27.6 25.8 13.2 41 8.6 NNE 15 22 8 12 1009.5 1007.6 0.0
21/05:00am 28.6 25.8 12.5 37 9.5 NNE 19 24 10 13 1009.2 1007.3 0.0
21/04:30am 30.0 26.6 12.4 34 10.5 N 22 33 12 18 1008.8 1006.9 0.0
21/04:00am 30.4 25.8 12.3 33 10.8 N 28 39 15 21 1008.5 1006.6 0.0
21/03:30am 30.7 25.3 12.1 32 11.0 N 32 43 17 23 1008.1 1006.1 0.0
21/03:00am 30.7 26.4 12.1 32 11.1 N 26 43 14 23 1007.9 1006.0 0.0
21/02:30am 30.6 27.0 12.0 32 11.0 N 22 32 12 17 1008.2 1006.2 0.0
21/02:00am 30.5 26.3 12.4 33 10.8 NNE 26 35 14 19 1008.6 1006.7 0.0
21/01:30am 31.3 27.3 13.1 33 11.0 N 26 41 14 22 1008.8 1006.9 0.0
21/01:00am 31.5 25.3 10.2 27 12.3 NNE 33 43 18 23 1008.6 1006.7 0.0
21/12:30am 31.9 25.1 9.4 25 12.9 NE 35 44 19 24 1008.5 1006.6 0.0
21/12:00am 32.3 25.1 9.2 24 13.2 NNE 37 48 20 26 1008.6 1006.7 0.0
 
Date/Time
EST
Temp
°C
App
Temp
°C
Dew
Point
°C
Rel
Hum
%
Delta-T
°C
Wind Press
QNH
hPa
Press
MSL
hPa
Rain since
9am
mm
Dir  Spd
km/h
Gust
km/h
Spd
kts
Gust
kts
20/11:30pm 32.7 26.3 9.5 24 13.3 NE 33 43 18 23 1009.1 1007.2 0.0
20/11:00pm 33.1 27.0 9.8 24 13.5 NNE 32 43 17 23 1009.1 1007.2 0.0
20/10:30pm 33.7 27.0 8.3 21 14.4 NE 33 43 18 23 1009.1 1007.2 0.0
20/10:00pm 32.8 27.8 -1.5 11 16.5 NE 15 35 8 19 1008.4 1006.5 0.0
20/09:30pm 35.1 31.1 -2.5 9 18.1 NW 9 11 5 6 1007.3 1005.4 0.0
20/09:00pm 33.9 29.6 -2.0 10 17.3 WNW 11 13 6 7 1007.1 1005.2 0.0
20/08:30pm 35.1 31.6 -1.1 10 17.8 NE 7 9 4 5 1006.7 1004.8 0.0
20/08:00pm 36.5 33.0 -1.4 9 18.7 E 7 9 4 5 1006.5 1004.6 0.0
20/07:30pm 37.7 33.5 -0.6 9 19.3 ENE 11 17 6 9 1006.1 1004.2 0.0
20/07:00pm 39.0 34.4 -1.2 8 20.3 ENE 13 19 7 10 1005.8 1003.9 0.0
20/06:30pm 40.2 36.9 -4.2 6 21.5 ESE 4 11 2 6 1005.6 1003.7 0.0
20/06:00pm 40.9 37.3 -3.7 6 21.9 SSE 6 13 3 7 1005.4 1003.5 0.0
20/05:30pm 41.5 37.9 -3.3 6 22.2 SE 6 9 3 5 1005.1 1003.2 0.0
20/05:00pm 41.3 36.8 -3.4 6 22.1 WNW 11 15 6 8 1005.1 1003.2 0.0
20/04:30pm 41.1 36.9 -3.6 6 21.9 N 9 15 5 8 1005.1 1003.2 0.0
20/04:00pm 41.3 36.8 -3.4 6 22.1 N 11 20 6 11 1005.2 1003.3 0.0
20/03:30pm 41.8 36.9 -3.1 6 22.3 WNW 13 22 7 12 1005.6 1003.7 0.0
20/03:00pm 41.5 35.5 -3.3 6 22.2 NNW 19 28 10 15 1005.8 1003.9 0.0
20/02:30pm 42.4 36.9 -5.1 5 23.0 NNW 15 24 8 13 1006.1 1004.2 0.0
20/02:00pm 42.1 36.9 -2.9 6 22.5 NW 15 22 8 12 1006.5 1004.6 0.0
20/01:30pm 41.6 37.1 -3.2 6 22.2 WNW 11 17 6 9 1007.0 1005.1 0.0
20/01:00pm 41.6 37.5 -3.2 6 22.2 NE 9 19 5 10 1007.6 1005.7 0.0
20/12:30pm 41.1 35.8 -3.6 6 21.9 S 15 26 8 14 1008.1 1006.1 0.0
20/12:00pm 41.0 36.8 -3.6 6 21.9 SSW 9 19 5 10 1008.6 1006.7 0.0
20/11:30am 40.6 34.9 -3.9 6 21.7 SW 17 26 9 14 1009.0 1007.1 0.0
20/11:00am 40.0 34.5 -2.3 7 21.1 ESE 17 26 9 14 1009.4 1007.5 0.0
20/10:30am 39.9 35.0 -0.5 8 20.6 ENE 15 24 8 13 1009.6 1007.7 0.0
20/10:00am 38.3 34.0 1.3 10 19.3 ENE 13 19 7 10 1009.9 1008.0 0.0
20/09:30am 36.1 32.7 -0.3 10 18.2 NE 7 11 4 6 1010.2 1008.3 0.0
20/09:00am 34.6 31.1 -1.4 10 17.6 NNE 7 11 4 6 1010.4 1008.5 0.0
20/08:30am 33.2 29.7 -2.5 10 16.9 ESE 6 7 3 4 1010.4 1008.5 0.0
20/08:00am 32.2 28.9 -4.6 9 16.7 SSE 4 9 2 5 1010.2 1008.3 0.0
20/07:30am 28.9 24.8 -7.1 9 15.2 WNW 7 9 4 5 1010.3 1008.4 0.0
20/07:00am 26.0 21.4 -7.9 10 13.8 NNW 9 11 5 6 1010.1 1008.2 0.0
20/06:30am 22.8 17.8 -8.1 12 12.1 WNW 11 13 6 7 1009.8 1007.9 0.0
20/06:00am 22.0 17.3 -8.7 12 11.8 WNW 9 11 5 6 1009.5 1007.6 0.0
20/05:30am 22.1 16.2 -9.7 11 12.0 W 15 17 8 9 1009.4 1007.5 0.0
20/05:00am 21.8 17.4 -9.9 11 11.9 W 7 11 4 6 1009.1 1007.2 0.0
20/04:30am 22.3 17.6 -9.5 11 12.1 WNW 9 9 5 5 1008.9 1007.0 0.0
20/04:00am 21.5 18.1 -10.2 11 11.8 WNW 2 7 1 4 1008.7 1006.8 0.0
20/03:30am 21.4 18.4 -9.1 12 11.6 CALM 0 0 0 0 1008.7 1006.8 0.0
20/03:00am 23.0 18.6 -10.2 10 12.6 SW 7 7 4 4 1008.7 1006.8 0.0
20/02:30am 24.6 20.4 -10.3 9 13.4 SW 6 7 3 4 1008.9 1007.0 0.0
20/02:00am 24.0 19.7 -9.5 10 13.0 WSW 7 7 4 4 1009.0 1007.1 0.0
20/01:30am 23.8 19.6 -9.6 10 12.9 WSW 6 7 3 4 1009.2 1007.3 0.0
20/01:00am 24.3 20.0 -9.2 10 13.1 SW 7 9 4 5 1009.6 1007.7 0.0
20/12:30am 26.0 20.9 -9.3 9 14.0 SW 11 13 6 7 1009.9 1008.0 0.0
20/12:00am 25.8 20.3 -9.4 9 13.9 SW 13 15 7 8 1010.2 1008.3 0.0
 
Date/Time
EST
Temp
°C
App
Temp
°C
Dew
Point
°C
Rel
Hum
%
Delta-T
°C
Wind Press
QNH
hPa
Press
MSL
hPa
Rain since
9am
mm
Dir  Spd
km/h
Gust
km/h
Spd
kts
Gust
kts
19/11:30pm 26.8 21.4 -8.7 9 14.3 WSW 13 13 7 7 1010.2 1008.3 0.0
19/11:00pm 27.4 22.4 -8.2 9 14.6 SW 11 13 6 7 1010.3 1008.4 0.0
19/10:30pm 27.8 23.2 -7.9 9 14.8 SW 9 13 5 7 1010.4 1008.5 0.0
19/10:00pm 28.2 23.5 -9.1 8 15.2 SW 9 11 5 6 1010.3 1008.4 0.0
19/09:30pm 28.3 24.0 -9.1 8 15.2 SSW 7 9 4 5 1010.2 1008.3 0.0
19/09:00pm 30.1 25.0 -9.4 7 16.3 SSE 11 13 6 7 1010.0 1008.1 0.0
19/08:30pm 31.1 26.1 -8.7 7 16.7 S 11 15 6 8 1009.8 1007.9 0.0
19/08:00pm 32.3 27.0 -7.8 7 17.3 SSW 13 15 7 8 1009.6 1007.7 0.0
19/07:30pm 34.0 29.3 -8.6 6 18.4 SSW 9 11 5 6 1009.2 1007.3 0.0
19/07:00pm 34.9 30.3 -8.0 6 18.9 SSW 9 13 5 7 1009.0 1007.1 0.0
19/06:30pm 37.5 32.5 -8.5 5 20.4 S 11 15 6 8 1008.8 1006.9 0.0
19/06:00pm 38.7 33.8 -7.6 5 21.1 SW 11 13 6 7 1008.4 1006.5 0.0
19/05:30pm 39.6 34.3 -7.0 5 21.5 SSW 13 20 7 11 1008.1 1006.1 0.0
19/05:00pm 39.6 34.3 -7.0 5 21.6 SSW 13 19 7 10 1007.8 1005.9 0.0
19/04:30pm 39.8 34.2 -6.9 5 21.6 SSE 15 24 8 13 1007.7 1005.8 0.0
19/04:00pm 40.2 35.3 -6.6 5 21.9 SE 11 19 6 10 1007.7 1005.8 0.0
19/03:30pm 39.6 34.3 -7.0 5 21.5 SSE 13 26 7 14 1008.1 1006.1 0.0
19/03:00pm 40.1 33.7 -6.7 5 21.8 SSW 19 30 10 16 1008.3 1006.3 0.0
19/02:30pm 39.3 33.6 -7.2 5 21.4 SW 15 26 8 14 1008.7 1006.8 0.0
19/02:00pm 39.6 33.9 -7.0 5 21.6 NW 15 28 8 15 1009.1 1007.2 0.0
19/01:30pm 39.9 35.0 -6.8 5 21.7 SSW 11 28 6 15 1009.4 1007.5 0.0
19/01:00pm 39.7 33.7 -6.9 5 21.6 SSW 17 24 9 13 1009.9 1008.0 0.0
19/12:30pm 38.1 34.1 -5.7 6 20.4 SSE 7 17 4 9 1010.5 1008.6 0.0
19/12:00pm 38.7 34.0 -5.3 6 20.7 SSE 11 20 6 11 1011.0 1009.1 0.0
19/11:30am 38.2 34.4 -5.6 6 20.5 SE 6 13 3 7 1011.3 1009.4 0.0
19/11:00am 37.6 32.8 -6.0 6 20.2 NNE 11 17 6 9 1011.8 1010.0 0.0
19/10:30am 37.0 32.0 -4.4 7 19.5 NE 13 22 7 12 1012.3 1010.4 0.0
19/10:00am 36.7 31.3 -4.7 7 19.4 E 15 20 8 11 1012.6 1010.7 0.0
19/09:30am 35.2 29.3 -5.7 7 18.7 ENE 17 28 9 15 1012.9 1011.0 0.0
19/09:00am 33.7 27.7 -6.8 7 17.9 E 17 22 9 12 1012.9 1011.0 0.0
19/08:30am 32.0 26.4 -6.3 8 16.9 E 15 20 8 11 1012.9 1011.0 0.0
19/08:00am 28.7 24.3 -5.9 10 14.9 SE 9 15 5 8 1013.1 1011.2 0.0
19/07:30am 26.4 22.2 -7.6 10 13.9 S 7 11 4 6 1013.0 1011.1 0.0
19/07:00am 24.0 19.8 -8.2 11 12.8 SW 7 9 4 5 1012.8 1010.9 0.0
19/06:30am 20.8 16.1 -8.6 13 11.2 WSW 9 9 5 5 1012.6 1010.7 0.0
19/06:00am 19.7 15.1 -8.5 14 10.6 SW 9 11 5 6 1012.2 1010.3 0.0
19/05:30am 19.6 14.9 -9.5 13 10.7 SW 9 9 5 5 1012.0 1010.1 0.0
19/05:00am 20.1 15.4 -9.1 13 10.9 WSW 9 9 5 5 1011.6 1009.7 0.0
19/04:30am 20.5 15.9 -7.9 14 10.9 SW 9 9 5 5 1011.5 1009.6 0.0
19/04:00am 20.3 15.3 -8.0 14 10.8 SW 11 13 6 7 1011.2 1009.3 0.0
19/03:30am 20.6 15.6 -8.7 13 11.1 SW 11 13 6 7 1011.1 1009.2 0.0
19/03:00am 21.0 16.0 -8.4 13 11.3 SW 11 13 6 7 1011.1 1009.2 0.0
19/02:30am 21.1 15.7 -8.4 13 11.3 SW 13 15 7 8 1011.1 1009.2 0.0
19/02:00am 21.5 16.1 -8.0 13 11.4 SW 13 15 7 8 1011.4 1009.5 0.0
19/01:30am 22.1 16.7 -8.6 12 11.8 SW 13 15 7 8 1011.5 1009.6 0.0
19/01:00am 22.6 17.2 -8.2 12 12.0 SW 13 15 7 8 1011.7 1009.9 0.0
19/12:30am 23.5 18.2 -7.5 12 12.4 SW 13 15 7 8 1012.0 1010.1 0.0
19/12:00am 24.4 19.1 -6.8 12 12.7 SW 13 15 7 8 1012.4 1010.5 0.0
 
Date/Time
EST
Temp
°C
App
Temp
°C
Dew
Point
°C
Rel
Hum
%
Delta-T
°C
Wind Press
QNH
hPa
Press
MSL
hPa
Rain since
9am
mm
Dir  Spd
km/h
Gust
km/h
Spd
kts
Gust
kts
18/11:30pm 24.7 19.5 -6.6 12 12.9 WSW 13 13 7 7 1012.5 1010.6 0.0
18/11:00pm 25.3 20.4 -7.2 11 13.3 SW 11 13 6 7 1012.8 1010.9 0.0
18/10:30pm 26.1 21.2 -6.6 11 13.6 SW 11 13 6 7 1012.9 1011.0 0.0
18/10:00pm 27.3 23.5 -5.7 11 14.1 SW 6 7 3 4 1012.9 1011.0 0.0
18/09:30pm 26.9 22.4 -7.2 10 14.2 SW 9 13 5 7 1012.8 1010.9 0.0
18/09:00pm 27.6 23.1 -6.7 10 14.5 SW 9 13 5 7 1012.7 1010.8 0.0
18/08:30pm 30.1 25.7 -6.2 9 15.8 S 9 11 5 6 1012.6 1010.7 0.0
18/08:00pm 30.8 25.8 -4.3 10 15.9 SSE 13 15 7 8 1012.3 1010.4 0.0
18/07:30pm 31.9 27.4 -6.4 8 16.8 SSW 9 11 5 6 1012.0 1010.1 0.0
18/07:00pm 33.5 28.2 -7.0 7 17.9 SSW 13 17 7 9 1011.6 1009.7 0.0
18/06:30pm 35.8 29.9 -5.3 7 19.0 SSW 17 22 9 12 1011.3 1009.4 0.0
18/06:00pm 36.8 31.8 -4.6 7 19.5 SW 13 20 7 11 1010.9 1009.0 0.0
18/05:30pm 37.4 32.0 -4.2 7 19.8 S 15 26 8 14 1010.7 1008.8 0.0
18/05:00pm 37.3 32.7 -4.2 7 19.7 SSE 11 24 6 13 1010.8 1008.9 0.0
18/04:30pm 37.5 31.8 -4.1 7 19.8 SSE 17 24 9 13 1010.9 1009.0 0.0
18/04:00pm 37.8 32.1 -3.9 7 20.0 S 17 22 9 12 1010.9 1009.0 0.0
18/03:30pm 37.3 31.9 -4.2 7 19.7 SSE 15 24 8 13 1011.1 1009.2 0.0
18/03:00pm 37.4 31.3 -4.2 7 19.8 S 19 32 10 17 1011.4 1009.5 0.0
18/02:30pm 37.1 31.3 -4.4 7 19.6 SSE 17 30 9 16 1011.7 1009.9 0.0
18/02:00pm 37.6 32.6 -4.0 7 19.9 S 13 28 7 15 1012.3 1010.4 0.0
18/01:30pm 36.7 31.5 -2.9 8 19.1 SE 15 22 8 12 1012.8 1010.9 0.0
18/01:00pm 37.3 32.1 -2.4 8 19.4 SSE 15 33 8 18 1013.2 1011.3 0.0
18/12:30pm 36.0 31.1 -3.4 8 18.8 SE 13 24 7 13 1013.7 1011.8 0.0
18/12:00pm 35.9 30.8 -1.9 9 18.4 SSE 15 22 8 12 1014.2 1012.3 0.0
18/11:30am 34.8 29.2 -2.7 9 17.9 SE 17 28 9 15 1014.6 1012.7 0.0
18/11:00am 34.8 28.8 -2.7 9 17.9 SSE 19 28 10 15 1015.0 1013.1 0.0

Other formats

Comma delimited format used in spreadsheet applications
http://www.bom.gov.au/fwo/IDQ60801/IDQ60801.94338.axf

JavaScript Object Notation format (JSON) in row-major order
http://www.bom.gov.au/fwo/IDQ60801/IDQ60801.94338.json

Data quality

Most of these data are generated automatically and are frequently updated. Quality checks on data are not normally performed. It is possible for incorrect values to appear. Refer to information at About Latest Weather Observations and please check the disclaimer before using these data.